sensor_id;sensor_type;location;lat;lon;timestamp;pressure;altitude;pressure_sealevel;temperature
68510;BMP180;55512;50.102;19.958;2023-01-28T00:00:30;98992.80;;;-0.42
68510;BMP180;55512;50.102;19.958;2023-01-28T00:02:55;98992.40;;;-0.40
68510;BMP180;55512;50.102;19.958;2023-01-28T00:05:20;98993.00;;;-0.40
68510;BMP180;55512;50.102;19.958;2023-01-28T00:07:49;98995.40;;;-0.40
68510;BMP180;55512;50.102;19.958;2023-01-28T00:10:15;98993.00;;;-0.40
68510;BMP180;55512;50.102;19.958;2023-01-28T00:12:41;98988.80;;;-0.40
68510;BMP180;55512;50.102;19.958;2023-01-28T00:15:07;98994.40;;;-0.40
68510;BMP180;55512;50.102;19.958;2023-01-28T00:17:32;98995.00;;;-0.38
68510;BMP180;55512;50.102;19.958;2023-01-28T00:19:58;98996.20;;;-0.30
68510;BMP180;55512;50.102;19.958;2023-01-28T00:22:24;98999.20;;;-0.30
68510;BMP180;55512;50.102;19.958;2023-01-28T00:24:49;98998.00;;;-0.30
68510;BMP180;55512;50.102;19.958;2023-01-28T00:27:15;98998.80;;;-0.30
68510;BMP180;55512;50.102;19.958;2023-01-28T00:29:40;99006.40;;;-0.38
68510;BMP180;55512;50.102;19.958;2023-01-28T00:32:06;99008.20;;;-0.36
68510;BMP180;55512;50.102;19.958;2023-01-28T00:34:32;99011.00;;;-0.30
68510;BMP180;55512;50.102;19.958;2023-01-28T00:36:57;99011.80;;;-0.30
68510;BMP180;55512;50.102;19.958;2023-01-28T00:39:25;99008.00;;;-0.30
68510;BMP180;55512;50.102;19.958;2023-01-28T00:41:52;99006.60;;;-0.30
68510;BMP180;55512;50.102;19.958;2023-01-28T00:44:19;99008.20;;;-0.30
68510;BMP180;55512;50.102;19.958;2023-01-28T00:46:46;99008.00;;;-0.30
68510;BMP180;55512;50.102;19.958;2023-01-28T00:49:11;99005.60;;;-0.26
68510;BMP180;55512;50.102;19.958;2023-01-28T00:51:37;99004.00;;;-0.24
68510;BMP180;55512;50.102;19.958;2023-01-28T00:54:03;99001.60;;;-0.26
68510;BMP180;55512;50.102;19.958;2023-01-28T00:56:28;99004.80;;;-0.30
68510;BMP180;55512;50.102;19.958;2023-01-28T00:58:54;99001.00;;;-0.30
68510;BMP180;55512;50.102;19.958;2023-01-28T01:01:26;99002.80;;;-0.30
68510;BMP180;55512;50.102;19.958;2023-01-28T01:03:53;98999.00;;;-0.30
68510;BMP180;55512;50.102;19.958;2023-01-28T01:06:30;99000.20;;;-0.30
68510;BMP180;55512;50.102;19.958;2023-01-28T01:08:56;99004.80;;;-0.30
68510;BMP180;55512;50.102;19.958;2023-01-28T01:11:22;99004.80;;;-0.30
68510;BMP180;55512;50.102;19.958;2023-01-28T01:13:53;99000.80;;;-0.30
68510;BMP180;55512;50.102;19.958;2023-01-28T01:16:21;99006.80;;;-0.30
68510;BMP180;55512;50.102;19.958;2023-01-28T01:18:47;99010.20;;;-0.30
68510;BMP180;55512;50.102;19.958;2023-01-28T01:21:16;99012.60;;;-0.30
68510;BMP180;55512;50.102;19.958;2023-01-28T01:23:43;99011.20;;;-0.26
68510;BMP180;55512;50.102;19.958;2023-01-28T01:26:09;99011.20;;;-0.30
68510;BMP180;55512;50.102;19.958;2023-01-28T01:28:35;99011.00;;;-0.30
68510;BMP180;55512;50.102;19.958;2023-01-28T01:31:05;99014.40;;;-0.30
68510;BMP180;55512;50.102;19.958;2023-01-28T01:33:31;99017.00;;;-0.30
68510;BMP180;55512;50.102;19.958;2023-01-28T01:35:58;99018.00;;;-0.30
68510;BMP180;55512;50.102;19.958;2023-01-28T01:38:25;99017.20;;;-0.30
68510;BMP180;55512;50.102;19.958;2023-01-28T01:40:51;99021.80;;;-0.30
68510;BMP180;55512;50.102;19.958;2023-01-28T01:43:21;99022.80;;;-0.30
68510;BMP180;55512;50.102;19.958;2023-01-28T01:45:56;99025.80;;;-0.32
68510;BMP180;55512;50.102;19.958;2023-01-28T01:48:32;99029.20;;;-0.40
68510;BMP180;55512;50.102;19.958;2023-01-28T01:51:22;99029.00;;;-0.36
68510;BMP180;55512;50.102;19.958;2023-01-28T01:53:53;99024.40;;;-0.40
68510;BMP180;55512;50.102;19.958;2023-01-28T01:56:25;99026.40;;;-0.40
68510;BMP180;55512;50.102;19.958;2023-01-28T01:58:53;99028.60;;;-0.46
68510;BMP180;55512;50.102;19.958;2023-01-28T02:01:23;99029.20;;;-0.50
68510;BMP180;55512;50.102;19.958;2023-01-28T02:04:18;99028.40;;;-0.46
68510;BMP180;55512;50.102;19.958;2023-01-28T02:06:47;99033.20;;;-0.46
68510;BMP180;55512;50.102;19.958;2023-01-28T02:09:31;99031.00;;;-0.50
68510;BMP180;55512;50.102;19.958;2023-01-28T02:12:03;99034.40;;;-0.50
68510;BMP180;55512;50.102;19.958;2023-01-28T02:14:34;99032.40;;;-0.50
68510;BMP180;55512;50.102;19.958;2023-01-28T02:17:03;99038.40;;;-0.54
68510;BMP180;55512;50.102;19.958;2023-01-28T02:19:37;99033.80;;;-0.56
68510;BMP180;55512;50.102;19.958;2023-01-28T02:31:14;99039.60;;;-0.60
68510;BMP180;55512;50.102;19.958;2023-01-28T02:36:42;99036.40;;;-0.62
68510;BMP180;55512;50.102;19.958;2023-01-28T02:39:21;99025.00;;;-0.66
68510;BMP180;55512;50.102;19.958;2023-01-28T02:42:09;99031.20;;;-0.70
68510;BMP180;55512;50.102;19.958;2023-01-28T02:44:36;99033.20;;;-0.70
68510;BMP180;55512;50.102;19.958;2023-01-28T02:47:01;99034.80;;;-0.70
68510;BMP180;55512;50.102;19.958;2023-01-28T02:49:52;99035.00;;;-0.64
68510;BMP180;55512;50.102;19.958;2023-01-28T03:05:19;99036.00;;;-0.60
68510;BMP180;55512;50.102;19.958;2023-01-28T03:07:47;99048.60;;;-0.60
68510;BMP180;55512;50.102;19.958;2023-01-28T03:10:19;99049.80;;;-0.60
68510;BMP180;55512;50.102;19.958;2023-01-28T03:12:50;99042.20;;;-0.60
68510;BMP180;55512;50.102;19.958;2023-01-28T03:15:46;99042.60;;;-0.60
68510;BMP180;55512;50.102;19.958;2023-01-28T03:18:50;99042.40;;;-0.60
68510;BMP180;55512;50.102;19.958;2023-01-28T03:21:41;99042.80;;;-0.60
68510;BMP180;55512;50.102;19.958;2023-01-28T03:24:37;99039.20;;;-0.50
68510;BMP180;55512;50.102;19.958;2023-01-28T03:28:04;99038.60;;;-0.50
68510;BMP180;55512;50.102;19.958;2023-01-28T03:33:43;99031.40;;;-0.50
68510;BMP180;55512;50.102;19.958;2023-01-28T03:36:29;99037.80;;;-0.50
68510;BMP180;55512;50.102;19.958;2023-01-28T03:39:28;99035.80;;;-0.42
68510;BMP180;55512;50.102;19.958;2023-01-28T03:42:10;99039.60;;;-0.42
68510;BMP180;55512;50.102;19.958;2023-01-28T03:44:37;99043.80;;;-0.40
68510;BMP180;55512;50.102;19.958;2023-01-28T03:47:23;99042.60;;;-0.40
68510;BMP180;55512;50.102;19.958;2023-01-28T03:49:52;99035.80;;;-0.40
68510;BMP180;55512;50.102;19.958;2023-01-28T03:52:30;99039.00;;;-0.40
68510;BMP180;55512;50.102;19.958;2023-01-28T03:54:56;99041.40;;;-0.40
68510;BMP180;55512;50.102;19.958;2023-01-28T03:57:25;99044.80;;;-0.40
68510;BMP180;55512;50.102;19.958;2023-01-28T03:59:52;99054.80;;;-0.40
68510;BMP180;55512;50.102;19.958;2023-01-28T04:02:20;99053.60;;;-0.40
68510;BMP180;55512;50.102;19.958;2023-01-28T04:04:46;99052.40;;;-0.40
68510;BMP180;55512;50.102;19.958;2023-01-28T04:07:13;99052.00;;;-0.40
68510;BMP180;55512;50.102;19.958;2023-01-28T04:09:40;99050.40;;;-0.44
68510;BMP180;55512;50.102;19.958;2023-01-28T04:12:06;99046.40;;;-0.40
68510;BMP180;55512;50.102;19.958;2023-01-28T04:14:32;99050.80;;;-0.42
68510;BMP180;55512;50.102;19.958;2023-01-28T04:16:58;99054.80;;;-0.42
68510;BMP180;55512;50.102;19.958;2023-01-28T04:19:25;99049.00;;;-0.40
68510;BMP180;55512;50.102;19.958;2023-01-28T04:21:51;99054.20;;;-0.44
68510;BMP180;55512;50.102;19.958;2023-01-28T04:24:20;99054.60;;;-0.44
68510;BMP180;55512;50.102;19.958;2023-01-28T04:26:46;99057.40;;;-0.48
68510;BMP180;55512;50.102;19.958;2023-01-28T04:29:12;99059.00;;;-0.44
68510;BMP180;55512;50.102;19.958;2023-01-28T04:31:37;99052.40;;;-0.50
68510;BMP180;55512;50.102;19.958;2023-01-28T04:34:03;99054.00;;;-0.44
68510;BMP180;55512;50.102;19.958;2023-01-28T04:36:28;99060.80;;;-0.40
68510;BMP180;55512;50.102;19.958;2023-01-28T04:38:54;99059.00;;;-0.42
68510;BMP180;55512;50.102;19.958;2023-01-28T04:41:20;99055.60;;;-0.40
68510;BMP180;55512;50.102;19.958;2023-01-28T04:43:45;99063.00;;;-0.40
68510;BMP180;55512;50.102;19.958;2023-01-28T04:46:14;99057.40;;;-0.40
68510;BMP180;55512;50.102;19.958;2023-01-28T04:48:39;99060.20;;;-0.40
68510;BMP180;55512;50.102;19.958;2023-01-28T04:51:05;99068.60;;;-0.40
68510;BMP180;55512;50.102;19.958;2023-01-28T04:53:31;99065.60;;;-0.40
68510;BMP180;55512;50.102;19.958;2023-01-28T04:55:57;99065.80;;;-0.40
68510;BMP180;55512;50.102;19.958;2023-01-28T04:58:23;99067.80;;;-0.40
68510;BMP180;55512;50.102;19.958;2023-01-28T05:00:55;99064.20;;;-0.40
68510;BMP180;55512;50.102;19.958;2023-01-28T05:03:20;99067.80;;;-0.40
68510;BMP180;55512;50.102;19.958;2023-01-28T05:05:46;99072.40;;;-0.40
68510;BMP180;55512;50.102;19.958;2023-01-28T05:08:11;99069.20;;;-0.40
68510;BMP180;55512;50.102;19.958;2023-01-28T05:10:37;99070.00;;;-0.40
68510;BMP180;55512;50.102;19.958;2023-01-28T05:13:04;99074.20;;;-0.32
68510;BMP180;55512;50.102;19.958;2023-01-28T05:15:30;99080.40;;;-0.32
68510;BMP180;55512;50.102;19.958;2023-01-28T05:17:55;99084.60;;;-0.30
68510;BMP180;55512;50.102;19.958;2023-01-28T05:20:21;99088.00;;;-0.32
68510;BMP180;55512;50.102;19.958;2023-01-28T05:22:46;99088.00;;;-0.30
68510;BMP180;55512;50.102;19.958;2023-01-28T05:25:12;99089.00;;;-0.30
68510;BMP180;55512;50.102;19.958;2023-01-28T05:27:38;99091.20;;;-0.30
68510;BMP180;55512;50.102;19.958;2023-01-28T05:30:05;99090.80;;;-0.32
68510;BMP180;55512;50.102;19.958;2023-01-28T05:32:31;99088.40;;;-0.32
68510;BMP180;55512;50.102;19.958;2023-01-28T05:34:57;99088.00;;;-0.30
68510;BMP180;55512;50.102;19.958;2023-01-28T05:37:22;99091.20;;;-0.30
68510;BMP180;55512;50.102;19.958;2023-01-28T05:39:47;99094.60;;;-0.30
68510;BMP180;55512;50.102;19.958;2023-01-28T05:42:13;99098.80;;;-0.30
68510;BMP180;55512;50.102;19.958;2023-01-28T05:44:40;99097.20;;;-0.30
68510;BMP180;55512;50.102;19.958;2023-01-28T05:47:06;99095.80;;;-0.30
68510;BMP180;55512;50.102;19.958;2023-01-28T05:49:32;99098.40;;;-0.24
68510;BMP180;55512;50.102;19.958;2023-01-28T05:51:57;99090.40;;;-0.30
68510;BMP180;55512;50.102;19.958;2023-01-28T05:54:23;99097.20;;;-0.30
68510;BMP180;55512;50.102;19.958;2023-01-28T05:56:48;99103.00;;;-0.30
68510;BMP180;55512;50.102;19.958;2023-01-28T05:59:14;99107.00;;;-0.30
68510;BMP180;55512;50.102;19.958;2023-01-28T06:01:39;99106.40;;;-0.28
68510;BMP180;55512;50.102;19.958;2023-01-28T06:04:06;99112.40;;;-0.30
68510;BMP180;55512;50.102;19.958;2023-01-28T06:06:31;99111.80;;;-0.28
68510;BMP180;55512;50.102;19.958;2023-01-28T06:08:57;99114.20;;;-0.22
68510;BMP180;55512;50.102;19.958;2023-01-28T06:11:22;99126.40;;;-0.26
68510;BMP180;55512;50.102;19.958;2023-01-28T06:13:48;99123.20;;;-0.20
68510;BMP180;55512;50.102;19.958;2023-01-28T06:16:13;99130.80;;;-0.20
68510;BMP180;55512;50.102;19.958;2023-01-28T06:18:39;99130.00;;;-0.20
68510;BMP180;55512;50.102;19.958;2023-01-28T06:21:06;99132.00;;;-0.20
68510;BMP180;55512;50.102;19.958;2023-01-28T06:23:31;99143.80;;;-0.20
68510;BMP180;55512;50.102;19.958;2023-01-28T06:25:57;99142.60;;;-0.20
68510;BMP180;55512;50.102;19.958;2023-01-28T06:28:23;99148.00;;;-0.20
68510;BMP180;55512;50.102;19.958;2023-01-28T06:30:50;99148.40;;;-0.20
68510;BMP180;55512;50.102;19.958;2023-01-28T06:33:17;99151.20;;;-0.24
68510;BMP180;55512;50.102;19.958;2023-01-28T06:35:43;99155.00;;;-0.20
68510;BMP180;55512;50.102;19.958;2023-01-28T06:38:09;99153.40;;;-0.22
68510;BMP180;55512;50.102;19.958;2023-01-28T06:40:35;99155.00;;;-0.20
68510;BMP180;55512;50.102;19.958;2023-01-28T06:43:01;99154.80;;;-0.20
68510;BMP180;55512;50.102;19.958;2023-01-28T06:45:26;99156.60;;;-0.20
68510;BMP180;55512;50.102;19.958;2023-01-28T06:47:52;99154.80;;;-0.20
68510;BMP180;55512;50.102;19.958;2023-01-28T06:50:17;99160.60;;;-0.20
68510;BMP180;55512;50.102;19.958;2023-01-28T06:52:43;99164.60;;;-0.20
68510;BMP180;55512;50.102;19.958;2023-01-28T06:55:08;99158.80;;;-0.20
68510;BMP180;55512;50.102;19.958;2023-01-28T06:57:37;99167.80;;;-0.20
68510;BMP180;55512;50.102;19.958;2023-01-28T07:00:08;99167.80;;;-0.20
68510;BMP180;55512;50.102;19.958;2023-01-28T07:02:36;99172.60;;;-0.20
68510;BMP180;55512;50.102;19.958;2023-01-28T07:05:03;99172.40;;;-0.20
68510;BMP180;55512;50.102;19.958;2023-01-28T07:07:28;99170.80;;;-0.20
68510;BMP180;55512;50.102;19.958;2023-01-28T07:09:54;99172.00;;;-0.20
68510;BMP180;55512;50.102;19.958;2023-01-28T07:12:20;99171.40;;;-0.20
68510;BMP180;55512;50.102;19.958;2023-01-28T07:14:45;99177.60;;;-0.20
68510;BMP180;55512;50.102;19.958;2023-01-28T07:17:11;99185.80;;;-0.20
68510;BMP180;55512;50.102;19.958;2023-01-28T07:19:36;99189.40;;;-0.20
68510;BMP180;55512;50.102;19.958;2023-01-28T07:22:02;99191.80;;;-0.14
68510;BMP180;55512;50.102;19.958;2023-01-28T07:24:29;99191.60;;;-0.20
68510;BMP180;55512;50.102;19.958;2023-01-28T07:26:55;99191.80;;;-0.20
68510;BMP180;55512;50.102;19.958;2023-01-28T07:29:21;99194.00;;;-0.20
68510;BMP180;55512;50.102;19.958;2023-01-28T07:31:47;99199.20;;;-0.20
68510;BMP180;55512;50.102;19.958;2023-01-28T07:34:12;99201.80;;;-0.20
68510;BMP180;55512;50.102;19.958;2023-01-28T07:36:38;99201.80;;;-0.20
68510;BMP180;55512;50.102;19.958;2023-01-28T07:39:04;99198.60;;;-0.20
68510;BMP180;55512;50.102;19.958;2023-01-28T07:41:29;99206.00;;;-0.20
68510;BMP180;55512;50.102;19.958;2023-01-28T07:43:55;99201.00;;;-0.20
68510;BMP180;55512;50.102;19.958;2023-01-28T07:46:20;99200.60;;;-0.20
68510;BMP180;55512;50.102;19.958;2023-01-28T07:48:46;99201.40;;;-0.20
68510;BMP180;55512;50.102;19.958;2023-01-28T07:51:12;99199.00;;;-0.22
68510;BMP180;55512;50.102;19.958;2023-01-28T07:53:38;99198.60;;;-0.20
68510;BMP180;55512;50.102;19.958;2023-01-28T07:56:04;99199.40;;;-0.22
68510;BMP180;55512;50.102;19.958;2023-01-28T07:58:30;99201.40;;;-0.20
68510;BMP180;55512;50.102;19.958;2023-01-28T08:01:00;99203.00;;;-0.20
68510;BMP180;55512;50.102;19.958;2023-01-28T08:03:27;99205.00;;;-0.20
68510;BMP180;55512;50.102;19.958;2023-01-28T08:05:54;99204.80;;;-0.20
68510;BMP180;55512;50.102;19.958;2023-01-28T08:08:22;99206.40;;;-0.20
68510;BMP180;55512;50.102;19.958;2023-01-28T08:10:48;99205.80;;;-0.12
68510;BMP180;55512;50.102;19.958;2023-01-28T08:13:15;99211.60;;;-0.10
68510;BMP180;55512;50.102;19.958;2023-01-28T08:15:41;99213.80;;;-0.10
68510;BMP180;55512;50.102;19.958;2023-01-28T08:18:10;99217.00;;;-0.10
68510;BMP180;55512;50.102;19.958;2023-01-28T08:20:41;99212.80;;;-0.10
68510;BMP180;55512;50.102;19.958;2023-01-28T08:23:18;99216.20;;;-0.10
68510;BMP180;55512;50.102;19.958;2023-01-28T08:25:45;99216.20;;;0.00
68510;BMP180;55512;50.102;19.958;2023-01-28T08:28:13;99214.80;;;0.00
68510;BMP180;55512;50.102;19.958;2023-01-28T08:30:39;99223.00;;;0.00
68510;BMP180;55512;50.102;19.958;2023-01-28T08:33:07;99218.40;;;0.06
68510;BMP180;55512;50.102;19.958;2023-01-28T08:35:34;99225.00;;;0.10
68510;BMP180;55512;50.102;19.958;2023-01-28T08:38:02;99227.00;;;0.10
68510;BMP180;55512;50.102;19.958;2023-01-28T08:40:28;99227.80;;;0.10
68510;BMP180;55512;50.102;19.958;2023-01-28T08:42:55;99220.40;;;0.10
68510;BMP180;55512;50.102;19.958;2023-01-28T08:45:23;99223.60;;;0.10
68510;BMP180;55512;50.102;19.958;2023-01-28T08:47:59;99226.60;;;0.10
68510;BMP180;55512;50.102;19.958;2023-01-28T08:50:29;99230.60;;;0.10
68510;BMP180;55512;50.102;19.958;2023-01-28T08:52:59;99236.00;;;0.10
68510;BMP180;55512;50.102;19.958;2023-01-28T08:55:27;99238.20;;;0.12
68510;BMP180;55512;50.102;19.958;2023-01-28T08:57:53;99240.40;;;0.12
68510;BMP180;55512;50.102;19.958;2023-01-28T09:00:20;99240.60;;;0.10
68510;BMP180;55512;50.102;19.958;2023-01-28T09:02:46;99242.00;;;0.16
68510;BMP180;55512;50.102;19.958;2023-01-28T09:05:15;99242.00;;;0.20
68510;BMP180;55512;50.102;19.958;2023-01-28T09:07:40;99240.80;;;0.20
68510;BMP180;55512;50.102;19.958;2023-01-28T09:10:07;99242.80;;;0.20
68510;BMP180;55512;50.102;19.958;2023-01-28T09:12:33;99246.20;;;0.20
68510;BMP180;55512;50.102;19.958;2023-01-28T09:14:59;99241.40;;;0.20
68510;BMP180;55512;50.102;19.958;2023-01-28T09:17:25;99238.00;;;0.20
68510;BMP180;55512;50.102;19.958;2023-01-28T09:19:50;99240.60;;;0.20
68510;BMP180;55512;50.102;19.958;2023-01-28T09:22:17;99243.20;;;0.20
68510;BMP180;55512;50.102;19.958;2023-01-28T09:24:42;99252.60;;;0.20
68510;BMP180;55512;50.102;19.958;2023-01-28T09:27:08;99249.80;;;0.20
68510;BMP180;55512;50.102;19.958;2023-01-28T09:29:34;99248.00;;;0.20
68510;BMP180;55512;50.102;19.958;2023-01-28T09:32:00;99246.80;;;0.22
68510;BMP180;55512;50.102;19.958;2023-01-28T09:34:26;99245.20;;;0.22
68510;BMP180;55512;50.102;19.958;2023-01-28T09:36:51;99248.80;;;0.24
68510;BMP180;55512;50.102;19.958;2023-01-28T09:39:18;99249.80;;;0.24
68510;BMP180;55512;50.102;19.958;2023-01-28T09:45:20;99244.20;;;0.30
68510;BMP180;55512;50.102;19.958;2023-01-28T09:47:53;99240.80;;;0.30
68510;BMP180;55512;50.102;19.958;2023-01-28T09:50:30;99241.20;;;0.30
68510;BMP180;55512;50.102;19.958;2023-01-28T09:53:06;99241.00;;;0.30
68510;BMP180;55512;50.102;19.958;2023-01-28T09:55:39;99242.80;;;0.34
68510;BMP180;55512;50.102;19.958;2023-01-28T09:58:12;99241.40;;;0.36
68510;BMP180;55512;50.102;19.958;2023-01-28T10:03:24;99247.00;;;0.40
68510;BMP180;55512;50.102;19.958;2023-01-28T10:06:02;99242.40;;;0.48
68510;BMP180;55512;50.102;19.958;2023-01-28T10:14:14;99232.40;;;0.50
68510;BMP180;55512;50.102;19.958;2023-01-28T10:16:53;99237.80;;;0.50
68510;BMP180;55512;50.102;19.958;2023-01-28T10:19:27;99239.80;;;0.54
68510;BMP180;55512;50.102;19.958;2023-01-28T10:22:06;99238.40;;;0.60
68510;BMP180;55512;50.102;19.958;2023-01-28T10:24:39;99237.60;;;0.60
68510;BMP180;55512;50.102;19.958;2023-01-28T10:27:25;99239.60;;;0.68
68510;BMP180;55512;50.102;19.958;2023-01-28T10:29:52;99237.40;;;0.70
68510;BMP180;55512;50.102;19.958;2023-01-28T10:32:36;99240.80;;;0.66
68510;BMP180;55512;50.102;19.958;2023-01-28T10:35:03;99238.80;;;0.70
68510;BMP180;55512;50.102;19.958;2023-01-28T10:37:34;99232.00;;;0.60
68510;BMP180;55512;50.102;19.958;2023-01-28T10:40:03;99229.80;;;0.50
68510;BMP180;55512;50.102;19.958;2023-01-28T10:42:33;99233.00;;;0.50
68510;BMP180;55512;50.102;19.958;2023-01-28T10:45:22;99234.00;;;0.50
68510;BMP180;55512;50.102;19.958;2023-01-28T10:50:28;99230.20;;;0.48
68510;BMP180;55512;50.102;19.958;2023-01-28T10:52:56;99234.20;;;0.38
68510;BMP180;55512;50.102;19.958;2023-01-28T10:55:26;99235.00;;;0.30
68510;BMP180;55512;50.102;19.958;2023-01-28T10:57:53;99231.00;;;0.30
68510;BMP180;55512;50.102;19.958;2023-01-28T11:02:47;99229.60;;;0.30
68510;BMP180;55512;50.102;19.958;2023-01-28T11:05:27;99224.40;;;0.30
68510;BMP180;55512;50.102;19.958;2023-01-28T11:08:16;99222.00;;;0.30
68510;BMP180;55512;50.102;19.958;2023-01-28T11:10:43;99226.00;;;0.40
68510;BMP180;55512;50.102;19.958;2023-01-28T11:13:23;99227.40;;;0.40
68510;BMP180;55512;50.102;19.958;2023-01-28T11:16:00;99225.40;;;0.30
68510;BMP180;55512;50.102;19.958;2023-01-28T11:18:45;99223.40;;;0.34
68510;BMP180;55512;50.102;19.958;2023-01-28T11:21:24;99219.00;;;0.40
68510;BMP180;55512;50.102;19.958;2023-01-28T11:23:54;99222.60;;;0.40
68510;BMP180;55512;50.102;19.958;2023-01-28T11:26:30;99221.00;;;0.40
68510;BMP180;55512;50.102;19.958;2023-01-28T11:28:57;99220.40;;;0.50
68510;BMP180;55512;50.102;19.958;2023-01-28T11:31:25;99220.00;;;0.50
68510;BMP180;55512;50.102;19.958;2023-01-28T11:33:59;99219.80;;;0.50
68510;BMP180;55512;50.102;19.958;2023-01-28T11:36:28;99215.00;;;0.50
68510;BMP180;55512;50.102;19.958;2023-01-28T11:39:20;99212.80;;;0.50
68510;BMP180;55512;50.102;19.958;2023-01-28T11:41:46;99213.00;;;0.50
68510;BMP180;55512;50.102;19.958;2023-01-28T11:44:23;99214.80;;;0.50
68510;BMP180;55512;50.102;19.958;2023-01-28T11:47:04;99213.60;;;0.40
68510;BMP180;55512;50.102;19.958;2023-01-28T11:52:52;99213.40;;;0.30
68510;BMP180;55512;50.102;19.958;2023-01-28T11:58:20;99209.80;;;0.06
68510;BMP180;55512;50.102;19.958;2023-01-28T12:08:56;99204.60;;;0.20
68510;BMP180;55512;50.102;19.958;2023-01-28T12:11:39;99207.60;;;0.20
68510;BMP180;55512;50.102;19.958;2023-01-28T12:21:05;99201.60;;;0.30
68510;BMP180;55512;50.102;19.958;2023-01-28T12:24:23;99208.00;;;0.38
68510;BMP180;55512;50.102;19.958;2023-01-28T12:30:24;99209.80;;;0.30
68510;BMP180;55512;50.102;19.958;2023-01-28T12:35:46;99203.60;;;0.36
68510;BMP180;55512;50.102;19.958;2023-01-28T12:38:51;99209.20;;;0.40
68510;BMP180;55512;50.102;19.958;2023-01-28T12:41:24;99207.00;;;0.50
68510;BMP180;55512;50.102;19.958;2023-01-28T12:44:02;99207.20;;;0.50
68510;BMP180;55512;50.102;19.958;2023-01-28T12:46:59;99207.40;;;0.50
68510;BMP180;55512;50.102;19.958;2023-01-28T12:49:39;99207.60;;;0.50
68510;BMP180;55512;50.102;19.958;2023-01-28T12:55:00;99207.80;;;0.54
68510;BMP180;55512;50.102;19.958;2023-01-28T12:57:31;99216.80;;;0.60
68510;BMP180;55512;50.102;19.958;2023-01-28T13:00:33;99213.00;;;0.60
68510;BMP180;55512;50.102;19.958;2023-01-28T13:06:03;99220.20;;;0.70
68510;BMP180;55512;50.102;19.958;2023-01-28T13:08:31;99217.00;;;0.70
68510;BMP180;55512;50.102;19.958;2023-01-28T13:11:00;99219.80;;;0.70
68510;BMP180;55512;50.102;19.958;2023-01-28T13:13:39;99221.60;;;0.70
68510;BMP180;55512;50.102;19.958;2023-01-28T13:16:10;99220.00;;;0.70
68510;BMP180;55512;50.102;19.958;2023-01-28T13:21:06;99225.60;;;0.70
68510;BMP180;55512;50.102;19.958;2023-01-28T13:23:43;99226.20;;;0.70
68510;BMP180;55512;50.102;19.958;2023-01-28T13:28:46;99231.60;;;0.70
68510;BMP180;55512;50.102;19.958;2023-01-28T13:31:15;99233.00;;;0.70
68510;BMP180;55512;50.102;19.958;2023-01-28T13:36:30;99232.00;;;0.80
68510;BMP180;55512;50.102;19.958;2023-01-28T13:39:17;99232.40;;;0.80
68510;BMP180;55512;50.102;19.958;2023-01-28T13:44:28;99239.80;;;0.80
68510;BMP180;55512;50.102;19.958;2023-01-28T13:49:40;99239.20;;;0.74
68510;BMP180;55512;50.102;19.958;2023-01-28T13:52:50;99237.20;;;0.72
68510;BMP180;55512;50.102;19.958;2023-01-28T13:55:26;99244.00;;;0.80
68510;BMP180;55512;50.102;19.958;2023-01-28T14:10:21;99248.60;;;0.80
68510;BMP180;55512;50.102;19.958;2023-01-28T14:16:10;99245.40;;;0.70
68510;BMP180;55512;50.102;19.958;2023-01-28T14:18:42;99251.60;;;0.70
68510;BMP180;55512;50.102;19.958;2023-01-28T14:21:18;99254.40;;;0.70
68510;BMP180;55512;50.102;19.958;2023-01-28T14:23:51;99255.20;;;0.70
68510;BMP180;55512;50.102;19.958;2023-01-28T14:26:41;99252.20;;;0.68
68510;BMP180;55512;50.102;19.958;2023-01-28T14:32:25;99259.40;;;0.40
68510;BMP180;55512;50.102;19.958;2023-01-28T14:34:58;99264.80;;;0.30
68510;BMP180;55512;50.102;19.958;2023-01-28T14:37:29;99268.60;;;0.20
68510;BMP180;55512;50.102;19.958;2023-01-28T14:40:01;99266.60;;;0.20
68510;BMP180;55512;50.102;19.958;2023-01-28T14:42:35;99267.80;;;0.20
68510;BMP180;55512;50.102;19.958;2023-01-28T14:59:03;99270.40;;;0.18
68510;BMP180;55512;50.102;19.958;2023-01-28T15:01:32;99275.80;;;0.12
68510;BMP180;55512;50.102;19.958;2023-01-28T15:03:57;99273.80;;;0.18
68510;BMP180;55512;50.102;19.958;2023-01-28T15:06:32;99273.40;;;0.10
68510;BMP180;55512;50.102;19.958;2023-01-28T15:09:12;99274.80;;;0.10
68510;BMP180;55512;50.102;19.958;2023-01-28T15:11:42;99280.00;;;0.10
68510;BMP180;55512;50.102;19.958;2023-01-28T15:14:27;99280.20;;;0.06
68510;BMP180;55512;50.102;19.958;2023-01-28T15:16:53;99285.00;;;0.00
68510;BMP180;55512;50.102;19.958;2023-01-28T15:19:27;99285.60;;;0.00
68510;BMP180;55512;50.102;19.958;2023-01-28T15:21:57;99290.60;;;0.06
68510;BMP180;55512;50.102;19.958;2023-01-28T15:24:24;99290.20;;;0.08
68510;BMP180;55512;50.102;19.958;2023-01-28T15:26:50;99290.60;;;0.06
68510;BMP180;55512;50.102;19.958;2023-01-28T15:29:32;99291.60;;;0.04
68510;BMP180;55512;50.102;19.958;2023-01-28T15:31:58;99291.60;;;0.00
68510;BMP180;55512;50.102;19.958;2023-01-28T15:34:25;99298.00;;;0.00
68510;BMP180;55512;50.102;19.958;2023-01-28T15:37:00;99304.00;;;0.00
68510;BMP180;55512;50.102;19.958;2023-01-28T15:39:28;99307.60;;;0.00
68510;BMP180;55512;50.102;19.958;2023-01-28T15:42:05;99308.80;;;0.00
68510;BMP180;55512;50.102;19.958;2023-01-28T15:44:43;99304.80;;;-0.08
68510;BMP180;55512;50.102;19.958;2023-01-28T15:47:17;99309.80;;;-0.10
68510;BMP180;55512;50.102;19.958;2023-01-28T15:49:49;99316.00;;;-0.10
68510;BMP180;55512;50.102;19.958;2023-01-28T15:52:15;99316.00;;;-0.10
68510;BMP180;55512;50.102;19.958;2023-01-28T15:54:46;99323.00;;;-0.10
68510;BMP180;55512;50.102;19.958;2023-01-28T15:57:28;99323.00;;;-0.10
68510;BMP180;55512;50.102;19.958;2023-01-28T16:00:12;99319.00;;;-0.10
68510;BMP180;55512;50.102;19.958;2023-01-28T16:03:09;99317.40;;;-0.10
68510;BMP180;55512;50.102;19.958;2023-01-28T16:05:41;99321.20;;;-0.18
68510;BMP180;55512;50.102;19.958;2023-01-28T16:08:18;99322.40;;;-0.20
68510;BMP180;55512;50.102;19.958;2023-01-28T16:10:55;99322.00;;;-0.20
68510;BMP180;55512;50.102;19.958;2023-01-28T16:13:30;99321.80;;;-0.18
68510;BMP180;55512;50.102;19.958;2023-01-28T16:15:57;99318.80;;;-0.12
68510;BMP180;55512;50.102;19.958;2023-01-28T16:18:46;99325.40;;;-0.10
68510;BMP180;55512;50.102;19.958;2023-01-28T16:21:27;99328.80;;;-0.10
68510;BMP180;55512;50.102;19.958;2023-01-28T16:24:21;99329.40;;;-0.10
68510;BMP180;55512;50.102;19.958;2023-01-28T16:27:04;99332.60;;;-0.10